createdAt,value
2018-08-25T00:02:24.709Z,1.30
2018-08-25T00:04:53.709Z,1.30
2018-08-25T00:07:22.751Z,1.33
2018-08-25T00:09:51.776Z,1.27
2018-08-25T00:12:20.881Z,1.43
2018-08-25T00:14:49.885Z,1.37
2018-08-25T00:17:18.922Z,1.20
2018-08-25T00:19:48.001Z,1.23
2018-08-25T00:22:16.985Z,1.40
2018-08-25T00:24:46.020Z,1.13
2018-08-25T00:27:15.013Z,1.27
2018-08-25T00:29:44.091Z,1.50
2018-08-25T00:32:13.258Z,1.00
2018-08-25T00:34:42.285Z,1.30
2018-08-25T00:37:11.369Z,1.50
2018-08-25T00:39:40.478Z,1.30
2018-08-25T00:42:09.609Z,1.40
2018-08-25T00:44:39.026Z,1.10
2018-08-25T00:47:08.060Z,1.20
2018-08-25T00:49:37.115Z,1.17
2018-08-25T00:52:06.178Z,1.10
2018-08-25T00:54:35.178Z,1.03
2018-08-25T00:57:04.260Z,1.30
2018-08-25T00:59:33.281Z,1.60
2018-08-25T01:02:02.542Z,1.40
2018-08-25T01:04:31.559Z,1.43
2018-08-25T01:07:00.617Z,1.20
2018-08-25T01:09:29.659Z,1.10
2018-08-25T01:11:58.684Z,1.30
2018-08-25T01:14:27.927Z,1.40
2018-08-25T01:16:56.947Z,1.43
2018-08-25T01:19:25.977Z,1.07
2018-08-25T01:21:55.034Z,1.00
2018-08-25T01:24:24.061Z,1.10
2018-08-25T01:26:53.185Z,0.90
2018-08-25T01:29:22.460Z,1.30
2018-08-25T01:31:51.480Z,1.40
2018-08-25T01:34:20.525Z,1.27
2018-08-25T01:36:49.700Z,1.10
2018-08-25T01:39:18.690Z,1.17
2018-08-25T01:41:47.705Z,1.33
2018-08-25T01:44:16.788Z,1.20
2018-08-25T01:46:45.760Z,1.10
2018-08-25T01:49:14.794Z,1.10
2018-08-25T01:51:43.808Z,1.20
2018-08-25T01:54:12.864Z,1.20
2018-08-25T01:56:41.874Z,1.17
2018-08-25T01:59:11.108Z,1.30
2018-08-25T02:01:40.164Z,1.67
2018-08-25T02:04:09.227Z,1.30
2018-08-25T02:06:38.249Z,1.00
2018-08-25T02:09:09.868Z,1.37
2018-08-25T02:11:38.897Z,1.40
2018-08-25T02:14:08.151Z,1.27
2018-08-25T02:16:37.216Z,1.07
2018-08-25T02:19:06.460Z,1.40
2018-08-25T02:21:35.461Z,1.40
2018-08-25T02:24:04.504Z,1.37
2018-08-25T02:26:33.511Z,1.20
2018-08-25T02:29:02.487Z,1.30
2018-08-25T02:31:31.518Z,1.90
2018-08-25T02:34:00.537Z,1.30
2018-08-25T02:36:29.560Z,1.40
2018-08-25T02:38:58.547Z,1.90
2018-08-25T02:41:27.553Z,1.20
2018-08-25T02:43:56.825Z,1.50
2018-08-25T02:46:25.833Z,1.43
2018-08-25T02:48:54.834Z,1.42
2018-08-25T02:51:23.893Z,1.93
2018-08-25T02:53:53.063Z,1.50
2018-08-25T02:56:22.069Z,1.70
2018-08-25T02:58:51.057Z,1.40
2018-08-25T03:01:20.052Z,1.43
2018-08-25T03:03:49.093Z,1.47
2018-08-25T03:06:18.091Z,1.60
2018-08-25T03:08:47.184Z,1.60
2018-08-25T03:11:16.208Z,1.73
2018-08-25T03:13:45.246Z,1.67
2018-08-25T03:16:14.303Z,1.70
2018-08-25T03:18:43.300Z,1.50
2018-08-25T03:21:12.294Z,1.50
2018-08-25T03:23:41.596Z,1.57
2018-08-25T03:26:10.639Z,1.40
2018-08-25T03:28:40.249Z,1.60
2018-08-25T03:31:09.289Z,1.53
2018-08-25T03:33:38.304Z,1.40
2018-08-25T03:36:07.292Z,1.63
2018-08-25T03:38:36.320Z,1.70
2018-08-25T03:41:05.727Z,1.67
2018-08-25T03:43:34.996Z,1.90
2018-08-25T03:46:04.020Z,1.40
2018-08-25T03:48:32.984Z,1.50
2018-08-25T03:51:02.235Z,1.60
2018-08-25T03:53:31.230Z,1.80
2018-08-25T03:56:00.243Z,1.90
2018-08-25T03:58:29.293Z,1.80
2018-08-25T04:00:58.344Z,1.93
2018-08-25T04:03:27.337Z,1.80
2018-08-25T04:05:56.356Z,1.63
2018-08-25T04:08:25.352Z,1.80
2018-08-25T04:10:54.632Z,1.70
2018-08-25T04:13:23.637Z,1.70
2018-08-25T04:15:52.640Z,1.83
2018-08-25T04:18:21.938Z,1.70
2018-08-25T04:20:50.923Z,1.77
2018-08-25T04:23:19.883Z,1.90
2018-08-25T04:25:48.885Z,1.70
2018-08-25T04:28:17.897Z,1.90
2018-08-25T04:30:46.917Z,1.87
2018-08-25T04:33:15.930Z,2.13
2018-08-25T04:35:44.923Z,2.23
2018-08-25T04:38:13.961Z,2.00
2018-08-25T04:40:42.985Z,1.87
2018-08-25T04:43:12.005Z,2.10
2018-08-25T04:45:41.102Z,1.73
2018-08-25T04:48:10.126Z,1.70
2018-08-25T04:50:39.172Z,1.43
2018-08-25T04:53:08.124Z,1.80
2018-08-25T04:55:37.132Z,1.70
2018-08-25T04:58:06.120Z,1.83
2018-08-25T05:00:35.148Z,1.90
2018-08-25T05:03:04.156Z,1.80
2018-08-25T05:05:33.140Z,1.87
2018-08-25T05:08:02.176Z,1.80
2018-08-25T05:10:31.188Z,2.03
2018-08-25T05:13:00.209Z,1.80
2018-08-25T05:15:29.209Z,2.13
2018-08-25T05:17:58.229Z,2.47
2018-08-25T05:20:27.366Z,2.03
2018-08-25T05:22:56.333Z,2.10
2018-08-25T05:25:25.620Z,2.10
2018-08-25T05:27:54.632Z,2.00
2018-08-25T05:30:23.633Z,2.10
2018-08-25T05:32:52.887Z,1.50
2018-08-25T05:35:21.895Z,1.77
2018-08-25T05:37:50.888Z,1.90
2018-08-25T05:40:20.288Z,1.87
2018-08-25T05:42:49.297Z,1.80
2018-08-25T05:45:18.289Z,1.67
2018-08-25T05:47:47.315Z,1.50
2018-08-25T05:50:16.369Z,1.43
2018-08-25T05:52:45.400Z,1.33
2018-08-25T05:55:14.420Z,1.03
2018-08-25T05:57:43.462Z,1.20
2018-08-25T06:00:12.613Z,0.97
2018-08-25T06:02:41.616Z,1.00
2018-08-25T06:05:10.676Z,1.00
2018-08-25T06:07:39.721Z,0.70
2018-08-25T06:10:08.774Z,0.90
2018-08-25T06:12:37.754Z,0.90
2018-08-25T06:15:06.814Z,0.90
2018-08-25T06:17:36.325Z,0.90
2018-08-25T06:20:05.320Z,0.90
2018-08-25T06:22:34.372Z,1.00
2018-08-25T06:25:03.364Z,1.00
2018-08-25T06:27:32.356Z,1.30
2018-08-25T06:30:01.392Z,1.00
2018-08-25T06:32:30.384Z,1.00
2018-08-25T06:34:59.400Z,1.33
2018-08-25T06:37:28.404Z,1.00
2018-08-25T06:39:57.440Z,1.07
2018-08-25T06:42:26.481Z,1.17
2018-08-25T06:44:55.432Z,1.00
2018-08-25T06:47:24.441Z,1.30
2018-08-25T06:49:53.453Z,1.20
2018-08-25T06:52:22.447Z,1.20
2018-08-25T06:54:51.433Z,1.37
2018-08-25T06:57:20.472Z,1.37
2018-08-25T06:59:49.435Z,1.30
2018-08-25T07:02:18.559Z,1.20
2018-08-25T07:04:47.539Z,1.33
2018-08-25T07:07:16.600Z,1.37
2018-08-25T07:09:46.486Z,1.60
2018-08-25T07:12:17.027Z,1.40
2018-08-25T07:14:47.374Z,1.67
2018-08-25T07:17:18.056Z,1.60
2018-08-25T07:19:48.815Z,1.32
2018-08-25T07:22:22.737Z,1.50
2018-08-25T07:24:52.347Z,1.37
2018-08-25T07:27:22.579Z,1.37
2018-08-25T07:32:40.892Z,1.92
2018-08-25T07:35:09.940Z,1.77
2018-08-25T07:37:38.914Z,1.75
2018-08-25T07:40:07.955Z,1.60
2018-08-25T07:42:39.147Z,1.40
2018-08-25T07:45:09.562Z,1.45
2018-08-25T07:47:39.363Z,1.43
2018-08-25T07:50:08.814Z,2.60
2018-08-25T07:52:37.815Z,6.60
2018-08-25T07:55:09.421Z,2.23
2018-08-25T07:57:38.469Z,1.70
2018-08-25T08:00:07.564Z,1.40
2018-08-25T08:02:36.585Z,1.20
2018-08-25T08:05:05.601Z,1.50
2018-08-25T08:07:36.061Z,1.50
2018-08-25T08:10:05.316Z,1.40
2018-08-25T08:12:34.342Z,1.57
2018-08-25T08:15:05.328Z,1.40
2018-08-25T08:17:34.345Z,1.33
2018-08-25T08:20:03.394Z,1.40
2018-08-25T08:22:32.431Z,1.50
2018-08-25T08:25:01.482Z,1.53
2018-08-25T08:27:30.476Z,1.67
2018-08-25T08:29:59.763Z,1.63
2018-08-25T08:32:28.817Z,1.57
2018-08-25T08:34:57.808Z,1.67
2018-08-25T08:37:26.792Z,1.57
2018-08-25T08:39:57.801Z,1.50
2018-08-25T08:42:26.950Z,1.40
2018-08-25T08:44:55.802Z,1.73
2018-08-25T08:47:26.296Z,1.70
2018-08-25T08:49:55.278Z,1.47
2018-08-25T08:52:24.248Z,1.60
2018-08-25T08:54:53.248Z,1.70
2018-08-25T08:57:22.216Z,1.30
2018-08-25T08:59:53.064Z,1.60
2018-08-25T09:02:22.116Z,1.70
2018-08-25T09:04:51.111Z,1.27
2018-08-25T09:07:20.115Z,1.30
2018-08-25T09:09:50.658Z,1.33
2018-08-25T09:12:19.655Z,1.53
2018-08-25T09:14:48.653Z,1.17
2018-08-25T09:17:23.637Z,1.60
2018-08-25T09:19:52.636Z,1.30
2018-08-25T09:22:21.755Z,1.40
2018-08-25T09:24:50.778Z,1.37
2018-08-25T09:27:19.785Z,1.17
2018-08-25T09:29:48.816Z,1.65
2018-08-25T09:32:18.870Z,1.40
2018-08-25T09:34:47.912Z,1.50
2018-08-25T09:37:16.908Z,1.30
2018-08-25T09:39:47.697Z,1.43
2018-08-25T09:42:16.728Z,1.50
2018-08-25T09:44:46.920Z,1.30
2018-08-25T09:47:15.913Z,1.30
2018-08-25T09:49:44.879Z,1.20
2018-08-25T09:52:15.721Z,1.57
2018-08-25T09:54:44.749Z,1.70
2018-08-25T09:57:13.737Z,1.37
2018-08-25T09:59:43.991Z,1.53
2018-08-25T10:02:13.332Z,1.47
2018-08-25T10:04:42.345Z,1.40
2018-08-25T10:07:12.898Z,1.60
2018-08-25T10:09:41.896Z,1.60
2018-08-25T10:12:10.915Z,1.40
2018-08-25T10:14:40.073Z,1.80
2018-08-25T10:17:11.420Z,2.07
2018-08-25T10:19:40.517Z,1.93
2018-08-25T10:22:09.570Z,2.13
2018-08-25T10:24:38.553Z,2.03
2018-08-25T10:27:08.724Z,1.83
2018-08-25T10:29:37.736Z,1.90
2018-08-25T10:32:06.749Z,1.70
2018-08-25T10:34:37.229Z,1.80
2018-08-25T10:37:06.547Z,1.73
2018-08-25T10:39:35.544Z,2.07
2018-08-25T10:42:06.631Z,1.70
2018-08-25T10:44:35.712Z,1.80
2018-08-25T10:47:04.761Z,1.67
2018-08-25T10:49:33.740Z,1.77
2018-08-25T10:52:02.792Z,1.60
2018-08-25T10:54:31.804Z,1.65
2018-08-25T10:57:02.049Z,1.70
2018-08-25T10:59:31.031Z,1.20
2018-08-25T11:02:00.024Z,1.98
2018-08-25T11:04:30.724Z,1.82
2018-08-25T11:06:59.695Z,1.72
2018-08-25T11:09:28.700Z,1.60
2018-08-25T11:11:59.913Z,2.33
2018-08-25T11:14:28.942Z,1.77
2018-08-25T11:16:57.932Z,2.00
2018-08-25T11:19:27.201Z,2.00
2018-08-25T11:21:56.228Z,1.70
2018-08-25T11:24:25.219Z,1.40
2018-08-25T11:26:54.480Z,1.40
2018-08-25T11:29:23.520Z,1.20
2018-08-25T11:31:52.500Z,1.23
2018-08-25T11:34:21.568Z,1.20
2018-08-25T11:36:50.996Z,1.30
2018-08-25T11:39:20.098Z,1.23
2018-08-25T11:41:49.056Z,1.40
2018-08-25T11:44:18.064Z,1.63
2018-08-25T11:46:47.120Z,1.60
2018-08-25T11:49:16.127Z,1.50
2018-08-25T11:51:45.160Z,1.60
2018-08-25T11:54:14.160Z,1.47
2018-08-25T11:56:43.199Z,1.40
2018-08-25T11:59:12.271Z,1.30
2018-08-25T12:01:41.373Z,1.50
2018-08-25T12:04:10.381Z,2.77
2018-08-25T12:06:39.452Z,2.10
2018-08-25T12:09:10.144Z,1.47
2018-08-25T12:11:39.265Z,1.40
2018-08-25T12:14:08.288Z,1.50
2018-08-25T12:16:37.656Z,1.70
2018-08-25T12:19:06.779Z,1.50
2018-08-25T12:21:35.797Z,1.73
2018-08-25T12:24:04.888Z,1.50
2018-08-25T12:26:33.933Z,1.70
2018-08-25T12:29:02.964Z,1.40
2018-08-25T12:31:31.962Z,1.70
2018-08-25T12:34:00.961Z,1.57
2018-08-25T12:36:29.968Z,1.60
2018-08-25T12:38:58.998Z,1.33
2018-08-25T12:41:27.985Z,1.30
2018-08-25T12:43:58.630Z,1.40
2018-08-25T12:46:27.649Z,1.60
2018-08-25T12:48:56.708Z,1.27
2018-08-25T12:51:25.632Z,1.20
2018-08-25T12:53:54.622Z,1.60
2018-08-25T12:56:25.303Z,1.30
2018-08-25T12:58:54.319Z,1.40
2018-08-25T13:01:23.341Z,1.20
2018-08-25T13:03:52.317Z,1.60
2018-08-25T13:06:21.301Z,1.50
2018-08-25T13:08:50.356Z,1.03
2018-08-25T13:11:19.397Z,1.10
2018-08-25T13:13:48.412Z,1.20
2018-08-25T13:16:17.400Z,1.07
2018-08-25T13:18:47.550Z,1.47
2018-08-25T13:21:17.447Z,1.10
2018-08-25T13:23:47.609Z,1.20
2018-08-25T13:26:16.609Z,1.30
2018-08-25T13:28:45.707Z,1.00
2018-08-25T13:31:14.728Z,1.00
2018-08-25T13:33:43.863Z,1.20
2018-08-25T13:36:12.886Z,0.90
2018-08-25T13:38:43.883Z,1.27
2018-08-25T13:41:13.173Z,1.27
2018-08-25T13:43:42.240Z,1.20
2018-08-25T13:46:11.221Z,1.10
2018-08-25T13:48:41.128Z,1.30
2018-08-25T13:51:11.011Z,1.27
2018-08-25T13:53:39.934Z,1.30
2018-08-25T13:56:09.002Z,1.50
2018-08-25T13:58:38.380Z,1.40
2018-08-25T14:01:07.520Z,1.40
2018-08-25T14:03:36.564Z,1.47
2018-08-25T14:06:05.562Z,1.40
2018-08-25T14:08:34.544Z,1.67
2018-08-25T14:11:03.547Z,1.53
2018-08-25T14:13:32.977Z,1.40
2018-08-25T14:16:02.068Z,1.73
2018-08-25T14:18:30.977Z,1.70
2018-08-25T14:21:00.016Z,1.50
2018-08-25T14:23:29.108Z,1.53
2018-08-25T14:25:58.132Z,1.93
2018-08-25T14:28:27.595Z,2.23
2018-08-25T14:30:56.761Z,1.80
2018-08-25T14:33:25.816Z,1.90
2018-08-25T14:35:54.863Z,2.03
2018-08-25T14:38:23.838Z,1.80
2018-08-25T14:40:52.921Z,3.50
2018-08-25T14:43:21.960Z,3.20
2018-08-25T14:45:50.965Z,2.97
2018-08-25T14:48:20.063Z,2.43
2018-08-25T14:50:49.076Z,2.67
2018-08-25T14:53:18.072Z,3.13
2018-08-25T14:55:47.072Z,2.67
2018-08-25T14:58:16.056Z,2.70
2018-08-25T15:00:45.140Z,3.50
2018-08-25T15:03:14.161Z,3.97
2018-08-25T15:05:43.141Z,3.10
2018-08-25T15:08:12.144Z,2.73
2018-08-25T15:10:47.206Z,3.03
2018-08-25T15:13:16.827Z,1.80
2018-08-25T15:15:46.266Z,1.90
2018-08-25T15:18:15.884Z,2.13
2018-08-25T15:20:45.655Z,1.60
2018-08-25T15:23:14.668Z,1.73
2018-08-25T15:25:43.649Z,1.80
2018-08-25T15:28:12.713Z,1.77
2018-08-25T15:30:41.722Z,1.90
2018-08-25T15:33:10.717Z,1.70
2018-08-25T15:35:39.736Z,2.03
2018-08-25T15:38:08.725Z,4.17
2018-08-25T15:40:37.754Z,3.60
2018-08-25T15:43:06.744Z,5.83
2018-08-25T15:45:35.725Z,5.57
2018-08-25T15:48:04.952Z,2.50
2018-08-25T15:50:33.956Z,2.90
2018-08-25T15:53:02.997Z,2.20
2018-08-25T15:55:32.012Z,1.50
2018-08-25T15:58:01.132Z,2.30
2018-08-25T16:00:30.024Z,3.20
2018-08-25T16:02:59.157Z,3.10
2018-08-25T16:05:28.197Z,2.40
2018-08-25T16:07:57.202Z,3.90
2018-08-25T16:10:26.229Z,2.07
2018-08-25T16:12:55.213Z,2.00
2018-08-25T16:15:24.245Z,2.10
2018-08-25T16:17:53.249Z,1.50
2018-08-25T16:20:22.281Z,1.60
2018-08-25T16:22:51.330Z,1.30
2018-08-25T16:25:20.299Z,1.10
2018-08-25T16:27:49.361Z,1.30
2018-08-25T16:30:18.368Z,1.43
2018-08-25T16:32:47.368Z,0.80
2018-08-25T16:35:16.382Z,0.97
2018-08-25T16:37:45.359Z,1.03
2018-08-25T16:40:14.417Z,1.00
2018-08-25T16:42:43.621Z,0.83
2018-08-25T16:45:12.658Z,1.20
2018-08-25T16:47:47.213Z,1.10
2018-08-25T16:50:16.224Z,1.40
2018-08-25T16:52:45.196Z,1.50
2018-08-25T16:55:14.768Z,1.20
2018-08-25T16:57:43.804Z,1.00
2018-08-25T17:00:12.861Z,1.10
2018-08-25T17:02:41.860Z,1.27
2018-08-25T17:05:10.940Z,1.50
2018-08-25T17:07:39.968Z,1.47
2018-08-25T17:10:09.016Z,1.67
2018-08-25T17:12:38.023Z,1.50
2018-08-25T17:15:07.225Z,1.40
2018-08-25T17:17:36.248Z,1.53
2018-08-25T17:20:05.314Z,1.90
2018-08-25T17:22:34.275Z,1.87
2018-08-25T17:25:03.344Z,2.10
2018-08-25T17:27:33.082Z,2.70
2018-08-25T17:30:02.353Z,1.70
2018-08-25T17:32:31.389Z,1.80
2018-08-25T17:35:00.316Z,2.10
2018-08-25T17:37:29.585Z,1.50
2018-08-25T17:39:58.592Z,1.70
2018-08-25T17:42:27.762Z,1.30
2018-08-25T17:44:56.894Z,1.60
2018-08-25T17:47:25.840Z,1.80
2018-08-25T17:49:56.109Z,1.27
2018-08-25T17:52:25.092Z,1.50
2018-08-25T17:54:54.201Z,1.60
2018-08-25T17:57:23.257Z,1.60
2018-08-25T17:59:52.168Z,1.40
2018-08-25T18:02:21.310Z,1.47
2018-08-25T18:04:50.317Z,1.40
2018-08-25T18:07:19.366Z,1.57
2018-08-25T18:09:48.324Z,2.40
2018-08-25T18:12:17.637Z,1.83
2018-08-25T18:14:46.629Z,1.80
2018-08-25T18:17:15.621Z,2.03
2018-08-25T18:19:44.605Z,2.40
2018-08-25T18:22:13.591Z,2.07
2018-08-25T18:24:42.608Z,2.00
2018-08-25T18:27:11.632Z,1.90
2018-08-25T18:29:40.632Z,2.00
2018-08-25T18:32:09.714Z,2.73
2018-08-25T18:34:38.669Z,1.90
2018-08-25T18:37:07.660Z,1.73
2018-08-25T18:39:36.632Z,1.90
2018-08-25T18:42:05.797Z,2.70
2018-08-25T18:44:34.873Z,2.03
2018-08-25T18:47:03.893Z,1.83
2018-08-25T18:49:32.903Z,2.07
2018-08-25T18:52:02.012Z,2.23
2018-08-25T18:54:31.084Z,2.40
2018-08-25T18:57:00.123Z,1.97
2018-08-25T18:59:29.343Z,2.03
2018-08-25T19:01:58.720Z,2.30
2018-08-25T19:04:27.694Z,4.53
2018-08-25T19:06:56.778Z,2.37
2018-08-25T19:09:25.782Z,2.47
2018-08-25T19:11:54.757Z,2.37
2018-08-25T19:14:23.987Z,2.70
2018-08-25T19:16:52.989Z,2.40
2018-08-25T19:19:21.969Z,2.40
2018-08-25T19:21:51.126Z,2.33
2018-08-25T19:24:20.175Z,2.50
2018-08-25T19:26:49.145Z,2.30
2018-08-25T19:29:18.191Z,2.20
2018-08-25T19:31:47.188Z,2.07
2018-08-25T19:34:16.165Z,2.40
2018-08-25T19:36:45.190Z,2.50
2018-08-25T19:39:14.169Z,2.70
2018-08-25T19:41:43.244Z,3.60
2018-08-25T19:44:12.302Z,3.63
2018-08-25T19:46:41.519Z,3.33
2018-08-25T19:49:10.533Z,3.43
2018-08-25T19:51:39.537Z,3.50
2018-08-25T19:54:08.528Z,3.67
2018-08-25T19:56:37.496Z,2.80
2018-08-25T19:59:06.547Z,2.63
2018-08-25T20:01:35.554Z,2.90
2018-08-25T20:04:04.600Z,3.13
2018-08-25T20:06:33.600Z,3.67
2018-08-25T20:09:02.726Z,2.80
2018-08-25T20:11:31.743Z,4.57
2018-08-25T20:14:00.808Z,3.20
2018-08-25T20:16:29.777Z,2.70
2018-08-25T20:18:58.847Z,2.50
2018-08-25T20:21:27.841Z,2.07
2018-08-25T20:23:57.000Z,2.40
2018-08-25T20:26:26.064Z,2.20
2018-08-25T20:28:55.508Z,2.30
2018-08-25T20:31:24.499Z,2.57
2018-08-25T20:33:53.451Z,2.10
2018-08-25T20:36:22.492Z,2.03
2018-08-25T20:38:51.471Z,2.20
2018-08-25T20:41:20.457Z,2.10
2018-08-25T20:43:49.463Z,2.27
2018-08-25T20:46:18.501Z,2.40
2018-08-25T20:48:47.452Z,2.90
2018-08-25T20:51:16.440Z,3.17
2018-08-25T20:53:45.674Z,2.23
2018-08-25T20:56:14.717Z,2.20
2018-08-25T20:58:43.732Z,2.30
2018-08-25T21:01:12.774Z,2.53
2018-08-25T21:03:41.780Z,2.27
2018-08-25T21:06:10.817Z,2.50
2018-08-25T21:08:39.964Z,2.90
2018-08-25T21:11:08.933Z,2.50
2018-08-25T21:13:37.913Z,2.70
2018-08-25T21:16:06.928Z,2.63
2018-08-25T21:18:35.963Z,2.83
2018-08-25T21:21:04.953Z,2.40
2018-08-25T21:23:33.997Z,3.00
2018-08-25T21:26:02.960Z,2.83
2018-08-25T21:28:32.898Z,3.30
2018-08-25T21:31:01.933Z,2.73
2018-08-25T21:33:30.941Z,3.03
2018-08-25T21:35:59.890Z,2.93
2018-08-25T21:38:29.167Z,3.10
2018-08-25T21:40:58.225Z,3.00
2018-08-25T21:43:27.186Z,2.80
2018-08-25T21:45:56.188Z,3.27
2018-08-25T21:48:25.544Z,2.90
2018-08-25T21:50:54.654Z,3.27
2018-08-25T21:53:23.606Z,3.40
2018-08-25T21:55:52.848Z,3.70
2018-08-25T21:58:21.800Z,3.50
2018-08-25T22:00:56.828Z,3.20
2018-08-25T22:03:27.126Z,3.47
2018-08-25T22:05:57.484Z,3.50
2018-08-25T22:08:26.487Z,3.07
2018-08-25T22:10:55.486Z,3.00
2018-08-25T22:13:24.537Z,2.70
2018-08-25T22:15:53.479Z,2.97
2018-08-25T22:18:23.327Z,3.20
2018-08-25T22:20:52.588Z,2.90
2018-08-25T22:23:21.568Z,3.27
2018-08-25T22:25:50.609Z,3.83
2018-08-25T22:28:19.762Z,3.80
2018-08-25T22:30:48.721Z,4.10
2018-08-25T22:33:17.954Z,4.00
2018-08-25T22:35:46.976Z,4.10
2018-08-25T22:38:17.016Z,4.40
2018-08-25T22:40:46.036Z,4.27
2018-08-25T22:43:15.246Z,3.80
2018-08-25T22:45:44.232Z,4.20
2018-08-25T22:48:13.638Z,3.87
2018-08-25T22:50:42.606Z,4.03
2018-08-25T22:53:11.769Z,4.07
2018-08-25T22:55:40.769Z,4.30
2018-08-25T22:58:09.779Z,3.60
2018-08-25T23:00:38.808Z,3.73
2018-08-25T23:04:10.546Z,3.60
2018-08-25T23:06:39.588Z,3.90
2018-08-25T23:09:09.728Z,4.13
2018-08-25T23:11:39.024Z,3.87
2018-08-25T23:14:08.023Z,3.90
2018-08-25T23:16:37.264Z,3.87
2018-08-25T23:19:07.433Z,4.57
2018-08-25T23:21:36.431Z,4.40
2018-08-25T23:24:05.687Z,4.40
2018-08-25T23:26:34.676Z,4.30
2018-08-25T23:29:03.636Z,4.30
2018-08-25T23:31:32.611Z,4.60
2018-08-25T23:34:01.651Z,4.17
2018-08-25T23:36:30.620Z,4.23
2018-08-25T23:38:59.603Z,4.30
2018-08-25T23:41:28.580Z,4.10
2018-08-25T23:43:57.594Z,4.20
2018-08-25T23:46:26.573Z,4.27
2018-08-25T23:48:56.379Z,4.53
2018-08-25T23:51:25.540Z,3.83
2018-08-25T23:53:54.552Z,4.00
2018-08-25T23:56:23.528Z,3.40
2018-08-25T23:58:52.664Z,3.97
